createdAt,value
2018-09-12T04:03:27.175Z,34.70
2018-09-12T04:05:55.323Z,34.80
2018-09-12T04:08:24.524Z,34.80
2018-09-12T04:10:52.935Z,34.80
2018-09-12T04:13:21.926Z,34.80
2018-09-12T04:15:50.133Z,34.80
2018-09-12T04:18:19.158Z,34.80
2018-09-12T04:20:47.407Z,34.80
2018-09-12T04:23:15.607Z,34.80
2018-09-12T04:25:44.293Z,34.90
2018-09-12T04:28:14.451Z,34.80
2018-09-12T04:30:44.428Z,34.90
2018-09-12T04:33:12.736Z,35.00
2018-09-12T04:35:41.104Z,35.00
2018-09-12T04:38:09.589Z,35.00
2018-09-12T04:40:37.814Z,35.00
2018-09-12T04:43:06.937Z,35.00
2018-09-12T04:45:35.584Z,35.10
2018-09-12T04:48:04.011Z,35.00
2018-09-12T04:50:32.604Z,35.00
2018-09-12T04:53:01.051Z,35.10
2018-09-12T04:55:29.239Z,35.10
2018-09-12T04:57:57.841Z,35.10
2018-09-12T05:00:26.520Z,35.10
2018-09-12T05:02:56.734Z,35.10
2018-09-12T05:05:24.925Z,35.10
2018-09-12T05:07:53.548Z,35.10
2018-09-12T05:10:22.550Z,35.20
2018-09-12T05:12:50.902Z,35.20
2018-09-12T05:15:19.276Z,35.20
2018-09-12T05:17:47.463Z,35.20
2018-09-12T05:20:15.631Z,35.20
2018-09-12T05:22:43.813Z,35.20
2018-09-12T05:25:12.588Z,35.20
2018-09-12T05:27:40.757Z,35.20
2018-09-12T05:30:09.176Z,35.20
2018-09-12T05:32:37.323Z,35.30
2018-09-12T05:35:05.517Z,35.30
2018-09-12T05:37:34.775Z,35.30
2018-09-12T05:40:03.299Z,35.40
2018-09-12T05:42:31.625Z,35.40
2018-09-12T05:45:00.180Z,35.40
2018-09-12T05:47:28.294Z,35.40
2018-09-12T05:49:56.532Z,35.40
2018-09-12T05:52:24.911Z,35.50
2018-09-12T05:54:53.531Z,35.50
2018-09-12T05:57:21.708Z,35.50
2018-09-12T05:59:51.003Z,35.50
2018-09-12T06:02:19.299Z,35.50
2018-09-12T06:04:48.033Z,35.60
2018-09-12T06:07:16.578Z,35.60
2018-09-12T06:09:44.574Z,36.10
2018-09-12T06:12:12.977Z,36.90
2018-09-12T06:14:41.407Z,37.50
2018-09-12T06:17:09.734Z,37.80
2018-09-12T06:19:38.322Z,37.80
2018-09-12T06:22:06.525Z,37.80
2018-09-12T06:24:34.726Z,37.70
2018-09-12T06:27:03.206Z,37.70
2018-09-12T06:29:32.730Z,37.80
2018-09-12T06:32:00.882Z,38.20
2018-09-12T06:34:29.292Z,38.30
2018-09-12T06:36:57.464Z,38.60
2018-09-12T06:39:25.811Z,39.00
2018-09-12T06:41:54.423Z,39.20
2018-09-12T06:44:23.828Z,39.20
2018-09-12T06:46:52.043Z,39.00
2018-09-12T06:49:20.309Z,39.10
2018-09-12T06:51:49.132Z,39.20
2018-09-12T06:54:17.359Z,39.00
2018-09-12T06:56:45.545Z,39.10
2018-09-12T06:59:13.894Z,39.10
2018-09-12T07:01:42.452Z,38.90
2018-09-12T07:04:11.239Z,39.00
2018-09-12T07:06:41.550Z,39.30
2018-09-12T07:09:11.268Z,39.00
2018-09-12T07:11:39.615Z,39.30
2018-09-12T07:14:08.124Z,38.80
2018-09-12T07:16:36.866Z,38.40
2018-09-12T07:19:05.146Z,38.60
2018-09-12T07:21:33.730Z,37.90
2018-09-12T07:24:01.919Z,37.70
2018-09-12T07:26:31.393Z,37.70
2018-09-12T07:29:00.673Z,37.30
2018-09-12T07:31:29.459Z,37.40
2018-09-12T07:33:58.051Z,37.30
2018-09-12T07:36:26.798Z,37.50
2018-09-12T07:38:55.152Z,37.80
2018-09-12T07:41:23.416Z,37.80
2018-09-12T07:43:52.742Z,37.80
2018-09-12T07:46:21.548Z,37.60
2018-09-12T07:48:50.290Z,37.80
2018-09-12T07:51:19.069Z,37.60
2018-09-12T07:53:47.821Z,37.60
2018-09-12T07:56:16.256Z,37.70
2018-09-12T07:58:45.107Z,37.60
2018-09-12T08:01:15.221Z,37.60
2018-09-12T08:03:45.130Z,37.60
2018-09-12T08:06:14.885Z,37.40
2018-09-12T08:08:47.691Z,37.30
2018-09-12T08:11:17.121Z,37.30
2018-09-12T08:13:45.340Z,37.30
2018-09-12T08:16:14.242Z,37.00
2018-09-12T08:18:43.127Z,37.00
2018-09-12T08:21:12.275Z,36.90
2018-09-12T08:23:41.424Z,37.00
2018-09-12T08:26:10.340Z,36.60
2018-09-12T08:28:38.557Z,36.60
2018-09-12T08:31:06.715Z,36.50
2018-09-12T08:33:34.844Z,36.50
2018-09-12T08:36:03.021Z,36.20
2018-09-12T08:38:31.272Z,36.10
2018-09-12T08:40:59.500Z,36.00
2018-09-12T08:43:27.929Z,35.80
2018-09-12T08:45:56.230Z,36.20
2018-09-12T08:48:24.527Z,35.60
2018-09-12T08:50:52.659Z,35.50
2018-09-12T08:53:21.852Z,35.40
2018-09-12T08:55:50.319Z,35.40
2018-09-12T08:58:18.781Z,35.30
2018-09-12T09:00:47.319Z,35.20
2018-09-12T09:03:16.439Z,35.70
2018-09-12T09:05:44.714Z,35.10
2018-09-12T09:08:13.410Z,35.00
2018-09-12T09:10:42.901Z,35.00
2018-09-12T09:13:11.359Z,34.90
2018-09-12T09:15:39.844Z,34.90
2018-09-12T09:18:08.081Z,35.00
2018-09-12T09:20:36.594Z,35.00
2018-09-12T09:23:04.915Z,35.50
2018-09-12T09:25:33.151Z,35.00
2018-09-12T09:28:01.311Z,34.90
2018-09-12T09:30:32.279Z,34.90
2018-09-12T09:33:00.931Z,34.80
2018-09-12T09:35:30.377Z,34.80
2018-09-12T09:37:58.682Z,34.90
2018-09-12T09:40:27.351Z,34.40
2018-09-12T09:42:55.569Z,34.40
2018-09-12T09:45:25.091Z,34.10
2018-09-12T09:47:53.350Z,33.90
2018-09-12T09:50:21.939Z,34.00
2018-09-12T09:52:50.463Z,33.80
2018-09-12T09:55:18.902Z,33.80
2018-09-12T09:57:47.266Z,33.70
2018-09-12T10:00:21.228Z,33.60
2018-09-12T10:02:54.845Z,33.60
2018-09-12T10:05:33.625Z,33.60
2018-09-12T10:08:07.657Z,33.50
2018-09-12T10:10:36.342Z,33.40
2018-09-12T10:13:04.532Z,33.30
2018-09-12T10:15:32.968Z,33.40
2018-09-12T10:18:01.817Z,33.40
2018-09-12T10:20:30.012Z,33.50
2018-09-12T10:22:58.203Z,33.60
2018-09-12T10:25:26.591Z,33.70
2018-09-12T10:27:54.707Z,33.70
2018-09-12T10:30:22.849Z,33.70
2018-09-12T10:32:51.976Z,34.00
2018-09-12T10:35:20.567Z,33.40
2018-09-12T10:37:48.701Z,33.20
2018-09-12T10:40:16.926Z,33.30
2018-09-12T10:42:45.721Z,33.40
2018-09-12T10:45:14.598Z,33.60
2018-09-12T10:47:43.156Z,33.60
2018-09-12T10:50:11.403Z,33.60
2018-09-12T10:52:39.897Z,33.60
2018-09-12T10:55:08.147Z,33.70
2018-09-12T10:57:36.361Z,33.70
2018-09-12T11:00:05.818Z,33.70
2018-09-12T11:02:34.321Z,33.60
2018-09-12T11:05:03.227Z,33.70
2018-09-12T11:07:33.027Z,33.60
2018-09-12T11:10:01.325Z,33.40
2018-09-12T11:12:29.624Z,33.30
2018-09-12T11:14:58.283Z,33.30
2018-09-12T11:17:27.302Z,33.30
2018-09-12T11:19:56.162Z,33.30
2018-09-12T11:22:24.877Z,33.20
2018-09-12T11:24:53.065Z,33.10
2018-09-12T11:27:22.037Z,33.10
2018-09-12T11:29:50.204Z,33.00
2018-09-12T11:32:18.402Z,32.90
2018-09-12T11:34:48.316Z,32.80
2018-09-12T11:37:17.721Z,32.70
2018-09-12T11:39:46.301Z,32.80
2018-09-12T11:42:14.831Z,32.80
2018-09-12T11:44:42.965Z,32.70
2018-09-12T11:47:11.360Z,32.60
2018-09-12T11:49:40.037Z,32.60
2018-09-12T11:52:08.535Z,33.00
2018-09-12T11:54:37.799Z,32.30
2018-09-12T11:57:07.088Z,32.30
2018-09-12T11:59:36.121Z,32.20
2018-09-12T12:02:04.767Z,31.90
2018-09-12T12:04:32.875Z,31.80
2018-09-12T12:07:01.228Z,31.50
2018-09-12T12:09:30.440Z,31.20
2018-09-12T12:11:58.959Z,31.00
2018-09-12T12:14:27.088Z,30.90
2018-09-12T12:16:55.644Z,30.80
2018-09-12T12:19:25.063Z,30.70
2018-09-12T12:21:53.324Z,31.00
2018-09-12T12:24:21.488Z,31.10
2018-09-12T12:26:50.035Z,31.20
2018-09-12T12:29:18.242Z,31.40
2018-09-12T12:31:47.199Z,30.90
2018-09-12T12:34:15.922Z,30.60
2018-09-12T12:36:44.841Z,30.30
2018-09-12T12:39:13.026Z,30.20
2018-09-12T12:41:42.694Z,30.30
2018-09-12T12:44:11.428Z,30.00
2018-09-12T12:46:40.030Z,30.00
2018-09-12T12:49:08.307Z,29.80
2018-09-12T12:51:36.476Z,29.80
2018-09-12T12:54:05.988Z,29.80
2018-09-12T12:56:34.146Z,29.60
2018-09-12T12:59:02.865Z,29.60
2018-09-12T13:01:30.995Z,29.70
2018-09-12T13:03:59.581Z,29.80
2018-09-12T13:06:28.074Z,29.60
2018-09-12T13:08:56.400Z,29.40
2018-09-12T13:11:25.386Z,29.70
2018-09-12T13:13:53.630Z,29.10
2018-09-12T13:16:22.034Z,29.00
2018-09-12T13:18:50.558Z,28.80
2018-09-12T13:21:18.857Z,28.60
2018-09-12T13:23:47.507Z,28.60
2018-09-12T13:26:17.259Z,28.70
2018-09-12T13:28:46.089Z,28.90
2018-09-12T13:31:14.806Z,29.10
2018-09-12T13:33:43.804Z,29.20
2018-09-12T13:36:12.527Z,29.20
2018-09-12T13:38:40.957Z,29.10
2018-09-12T13:41:09.571Z,29.10
2018-09-12T13:43:38.526Z,29.00
2018-09-12T13:46:07.484Z,29.10
2018-09-12T13:48:37.038Z,29.40
2018-09-12T13:51:06.587Z,29.20
2018-09-12T13:53:35.647Z,29.00
2018-09-12T13:56:04.275Z,29.10
2018-09-12T13:58:32.878Z,28.90
2018-09-12T14:01:01.757Z,29.20
2018-09-12T14:03:31.241Z,29.10
2018-09-12T14:06:00.461Z,29.20
2018-09-12T14:08:28.936Z,29.00
2018-09-12T14:10:57.868Z,29.00
2018-09-12T14:13:26.537Z,29.10
2018-09-12T14:15:55.508Z,29.20
2018-09-12T14:18:23.724Z,29.20
2018-09-12T14:20:51.882Z,29.20
2018-09-12T14:23:20.504Z,29.20
2018-09-12T14:25:48.776Z,29.20
2018-09-12T14:28:17.857Z,29.20
2018-09-12T14:30:46.156Z,29.20
2018-09-12T14:33:14.794Z,29.10
2018-09-12T14:35:43.454Z,29.10
2018-09-12T14:38:12.050Z,29.00
2018-09-12T14:40:40.582Z,28.90
2018-09-12T14:43:08.864Z,28.80
2018-09-12T14:45:37.571Z,29.00
2018-09-12T14:48:06.476Z,29.00
2018-09-12T14:50:35.282Z,28.50
2018-09-12T14:53:04.354Z,28.60
2018-09-12T14:55:32.887Z,28.50
2018-09-12T14:58:01.640Z,28.00
2018-09-12T15:00:30.225Z,28.00
2018-09-12T15:02:59.491Z,27.70
2018-09-12T15:05:28.007Z,28.00
2018-09-12T15:07:57.126Z,27.50
2018-09-12T15:10:25.841Z,27.70
2018-09-12T15:12:54.416Z,27.50
2018-09-12T15:15:22.568Z,27.50
2018-09-12T15:17:51.659Z,27.90
2018-09-12T15:20:19.863Z,28.30
2018-09-12T15:22:48.031Z,28.00
2018-09-12T15:25:16.479Z,27.80
2018-09-12T15:27:46.086Z,27.40
2018-09-12T15:30:14.232Z,27.70
2018-09-12T15:32:42.409Z,27.80
2018-09-12T15:35:10.571Z,27.80
2018-09-12T15:37:38.763Z,27.80
2018-09-12T15:40:07.022Z,27.80
2018-09-12T15:42:35.176Z,27.70
2018-09-12T15:45:04.131Z,27.70
2018-09-12T15:47:32.313Z,27.70
2018-09-12T15:50:01.004Z,27.80
2018-09-12T15:52:29.426Z,27.80
2018-09-12T15:54:57.738Z,27.80
2018-09-12T15:57:26.530Z,27.90
2018-09-12T15:59:55.021Z,27.90
2018-09-12T16:02:23.510Z,27.90
2018-09-12T16:04:51.685Z,28.00
2018-09-12T16:07:20.886Z,28.00
2018-09-12T16:09:49.041Z,28.00
2018-09-12T16:12:17.351Z,28.00
2018-09-12T16:14:46.164Z,28.00
2018-09-12T16:17:14.704Z,28.10
2018-09-12T16:19:43.120Z,28.20
2018-09-12T16:22:11.279Z,28.20
2018-09-12T16:24:39.926Z,28.20
2018-09-12T16:27:08.599Z,28.60
2018-09-12T16:29:36.805Z,28.30
2018-09-12T16:32:05.446Z,28.30
2018-09-12T16:34:33.651Z,28.30
2018-09-12T16:37:01.816Z,28.30
2018-09-12T16:39:31.808Z,28.40
2018-09-12T16:42:00.203Z,28.30
2018-09-12T16:44:29.101Z,28.40
2018-09-12T16:46:57.600Z,28.40
2018-09-12T16:49:25.797Z,28.40
2018-09-12T16:51:53.971Z,28.40
2018-09-12T16:54:22.186Z,28.40
2018-09-12T16:56:50.649Z,28.50
2018-09-12T16:59:19.399Z,28.40
2018-09-12T17:01:47.905Z,28.40
2018-09-12T17:04:16.395Z,28.50
2018-09-12T17:06:45.572Z,28.50
2018-09-12T17:09:13.983Z,28.50
2018-09-12T17:11:42.762Z,28.50
2018-09-12T17:14:11.337Z,28.50
2018-09-12T17:16:39.416Z,28.50
2018-09-12T17:19:07.910Z,28.50
2018-09-12T17:21:36.487Z,28.60
2018-09-12T17:24:05.337Z,28.60
2018-09-12T17:26:34.889Z,28.60
2018-09-12T17:29:03.063Z,28.60
2018-09-12T17:31:32.079Z,28.70
2018-09-12T17:34:00.256Z,28.70
2018-09-12T17:36:29.044Z,28.70
2018-09-12T17:38:57.242Z,28.70
2018-09-12T17:41:26.126Z,28.80
2018-09-12T17:43:54.514Z,28.80
2018-09-12T17:46:23.070Z,28.80
2018-09-12T17:48:51.252Z,28.80
2018-09-12T17:51:19.668Z,28.90
2018-09-12T17:53:48.959Z,28.90
2018-09-12T17:56:17.136Z,29.00
2018-09-12T17:58:46.220Z,29.00
